Terminal Aerodrome Forecast
Issued by NWS

Home | Current Version | Previous Version | Text Only | Print | Product List | Glossary Off
Versions: 1 2 3 4 5 6 7 8 9 10 11 12 13 14 15 16 17 18 19

000
FTUS42 KMHX 152245 AAA
TAFPGV
TAF AMD
KPGV 152245Z 1523/1618 01003KT P6SM SCT025
     FM160200 VRB03KT P6SM BKN015
      TEMPO 1605/1609 3SM BR
     FM160900 00000KT P6SM SCT015
     FM161200 27005KT P6SM FEW020 SCT250
      AMD LTD TO CLD VIS AND WIND=

USA.gov is the U.S. government's official web portal to all federal, state and local government web resources and services.